Main page
METAR-TAF:

METAR-TAF

Airports :

Kalamata International Airport

Kalamata, Greece

latitude: 37-04N, longitude: 022-01E, elevation: 6 m

Current weather observation

The report was made 32 minutes ago, at 21:20 UTC
Wind 4 kt from the North
Temperature 21°C
Humidity 73%
Pressure 1009 hPa
Visibility 10 km or more
Few clouds at a height of 8000 ft

METAR: LGKL 172120Z 35004KT 9999 FEW080 21/16 Q1009

Time: 00:52 (21:52 UTC)

Forecast

The report was made 1 hour and 52 minutes ago, at 20:00 UTC
Forecast valid from 17 at 21 UTC to 18 at 06 UTC
Wind 7 kt from the North/Northwest
Visibility 10 km or more
Few clouds at a height of 2500 ft

TAF: LGKL 172000Z 1721/1806 33007KT 9999 FEW025

Weather observations and forecasts of more than 4000 airports (METAR and TAF reports).

The available stations are represented by yellow and red dots on the map.

Hover mouse over dot to see the name of the station.

Then click to see weather observations and forecasts.

To change the map : click on the green buttons with a black cross to zoom in, on the green button with a dash to zoom out, or on the green arrows for adjacent maps.


METAR-TAF: